sensor_id;sensor_type;location;lat;lon;timestamp;pressure;altitude;pressure_sealevel;temperature;humidity
77590;BME280;66746;51.328;12.332;2023-11-19T00:00:48;100313.94;;;4.95;100.00
77590;BME280;66746;51.328;12.332;2023-11-19T00:03:19;100307.63;;;4.98;100.00
77590;BME280;66746;51.328;12.332;2023-11-19T00:05:46;100306.72;;;4.97;100.00
77590;BME280;66746;51.328;12.332;2023-11-19T00:08:13;100293.38;;;4.93;100.00
77590;BME280;66746;51.328;12.332;2023-11-19T00:10:41;100308.47;;;5.00;100.00
77590;BME280;66746;51.328;12.332;2023-11-19T00:13:07;100303.97;;;5.02;100.00
77590;BME280;66746;51.328;12.332;2023-11-19T00:15:34;100301.38;;;4.96;100.00
77590;BME280;66746;51.328;12.332;2023-11-19T00:18:01;100285.31;;;4.93;100.00
77590;BME280;66746;51.328;12.332;2023-11-19T00:20:30;100289.88;;;4.88;100.00
77590;BME280;66746;51.328;12.332;2023-11-19T00:22:57;100288.03;;;4.90;100.00
77590;BME280;66746;51.328;12.332;2023-11-19T00:25:23;100271.06;;;4.89;100.00
77590;BME280;66746;51.328;12.332;2023-11-19T00:27:52;100274.56;;;4.93;100.00
77590;BME280;66746;51.328;12.332;2023-11-19T00:30:19;100268.34;;;4.91;100.00
77590;BME280;66746;51.328;12.332;2023-11-19T00:32:46;100259.34;;;4.92;100.00
77590;BME280;66746;51.328;12.332;2023-11-19T00:35:12;100263.88;;;4.90;100.00
77590;BME280;66746;51.328;12.332;2023-11-19T00:37:39;100242.41;;;4.88;100.00
77590;BME280;66746;51.328;12.332;2023-11-19T00:40:07;100237.00;;;4.90;100.00
77590;BME280;66746;51.328;12.332;2023-11-19T00:42:33;100221.81;;;4.89;100.00
77590;BME280;66746;51.328;12.332;2023-11-19T00:45:02;100218.09;;;4.96;100.00
77590;BME280;66746;51.328;12.332;2023-11-19T00:47:28;100207.34;;;4.96;100.00
77590;BME280;66746;51.328;12.332;2023-11-19T00:49:55;100209.16;;;4.94;100.00
77590;BME280;66746;51.328;12.332;2023-11-19T00:52:22;100198.34;;;4.98;100.00
77590;BME280;66746;51.328;12.332;2023-11-19T00:54:48;100179.53;;;4.98;100.00
77590;BME280;66746;51.328;12.332;2023-11-19T00:57:15;100183.22;;;4.93;100.00
77590;BME280;66746;51.328;12.332;2023-11-19T00:59:42;100152.84;;;4.88;100.00
77590;BME280;66746;51.328;12.332;2023-11-19T01:02:10;100158.22;;;4.88;100.00
77590;BME280;66746;51.328;12.332;2023-11-19T01:04:37;100162.75;;;4.86;100.00
77590;BME280;66746;51.328;12.332;2023-11-19T01:07:04;100164.47;;;4.90;100.00
77590;BME280;66746;51.328;12.332;2023-11-19T01:09:31;100148.44;;;4.84;100.00
77590;BME280;66746;51.328;12.332;2023-11-19T01:11:58;100144.75;;;4.91;100.00
77590;BME280;66746;51.328;12.332;2023-11-19T01:14:26;100157.16;;;4.98;100.00
77590;BME280;66746;51.328;12.332;2023-11-19T01:16:52;100138.31;;;5.01;100.00
77590;BME280;66746;51.328;12.332;2023-11-19T01:19:20;100131.25;;;4.95;100.00
77590;BME280;66746;51.328;12.332;2023-11-19T01:21:47;100120.53;;;4.92;100.00
77590;BME280;66746;51.328;12.332;2023-11-19T01:24:14;100113.31;;;4.96;100.00
77590;BME280;66746;51.328;12.332;2023-11-19T01:26:41;100102.53;;;4.99;100.00
77590;BME280;66746;51.328;12.332;2023-11-19T01:29:07;100091.94;;;4.91;100.00
77590;BME280;66746;51.328;12.332;2023-11-19T01:31:34;100068.84;;;4.80;100.00
77590;BME280;66746;51.328;12.332;2023-11-19T01:34:01;100083.81;;;4.93;100.00
77590;BME280;66746;51.328;12.332;2023-11-19T01:36:29;100073.19;;;4.87;100.00
77590;BME280;66746;51.328;12.332;2023-11-19T01:38:56;100070.31;;;4.96;100.00
77590;BME280;66746;51.328;12.332;2023-11-19T01:41:22;100052.59;;;4.87;100.00
77590;BME280;66746;51.328;12.332;2023-11-19T01:43:49;100060.44;;;4.98;100.00
77590;BME280;66746;51.328;12.332;2023-11-19T01:46:16;100044.63;;;4.83;100.00
77590;BME280;66746;51.328;12.332;2023-11-19T01:48:45;100050.78;;;4.88;100.00
77590;BME280;66746;51.328;12.332;2023-11-19T01:51:12;100064.16;;;4.91;100.00
77590;BME280;66746;51.328;12.332;2023-11-19T01:53:40;100054.44;;;4.85;100.00
77590;BME280;66746;51.328;12.332;2023-11-19T01:56:07;100035.63;;;4.85;100.00
77590;BME280;66746;51.328;12.332;2023-11-19T01:58:36;100050.00;;;4.83;100.00
77590;BME280;66746;51.328;12.332;2023-11-19T02:01:03;100055.19;;;4.92;100.00
77590;BME280;66746;51.328;12.332;2023-11-19T02:03:31;100036.38;;;4.92;100.00
77590;BME280;66746;51.328;12.332;2023-11-19T02:05:58;100027.44;;;4.90;100.00
77590;BME280;66746;51.328;12.332;2023-11-19T02:08:25;100019.41;;;4.90;100.00
77590;BME280;66746;51.328;12.332;2023-11-19T02:10:53;100016.72;;;4.91;100.00
77590;BME280;66746;51.328;12.332;2023-11-19T02:13:20;99988.97;;;4.89;100.00
77590;BME280;66746;51.328;12.332;2023-11-19T02:15:46;99971.03;;;4.90;100.00
77590;BME280;66746;51.328;12.332;2023-11-19T02:18:20;99979.09;;;4.90;100.00
77590;BME280;66746;51.328;12.332;2023-11-19T02:20:48;99975.47;;;4.92;100.00
77590;BME280;66746;51.328;12.332;2023-11-19T02:23:17;99977.25;;;4.92;100.00
77590;BME280;66746;51.328;12.332;2023-11-19T02:25:47;99975.44;;;4.95;100.00
77590;BME280;66746;51.328;12.332;2023-11-19T02:28:21;99956.72;;;4.91;100.00
77590;BME280;66746;51.328;12.332;2023-11-19T02:30:48;99952.19;;;4.93;100.00
77590;BME280;66746;51.328;12.332;2023-11-19T02:33:14;99953.16;;;4.89;100.00
77590;BME280;66746;51.328;12.332;2023-11-19T02:35:41;99937.81;;;4.94;100.00
77590;BME280;66746;51.328;12.332;2023-11-19T02:38:07;99948.69;;;4.89;100.00
77590;BME280;66746;51.328;12.332;2023-11-19T02:40:34;99944.09;;;4.94;100.00
77590;BME280;66746;51.328;12.332;2023-11-19T02:43:01;99920.00;;;4.90;100.00
77590;BME280;66746;51.328;12.332;2023-11-19T02:45:29;99902.03;;;4.93;100.00
77590;BME280;66746;51.328;12.332;2023-11-19T02:47:56;99898.50;;;4.91;100.00
77590;BME280;66746;51.328;12.332;2023-11-19T02:50:23;99893.13;;;4.91;100.00
77590;BME280;66746;51.328;12.332;2023-11-19T02:52:50;99885.03;;;4.93;100.00
77590;BME280;66746;51.328;12.332;2023-11-19T02:55:19;99877.81;;;4.95;100.00
77590;BME280;66746;51.328;12.332;2023-11-19T02:57:46;99883.06;;;5.01;100.00
77590;BME280;66746;51.328;12.332;2023-11-19T03:00:14;99872.31;;;4.99;100.00
77590;BME280;66746;51.328;12.332;2023-11-19T03:02:42;99868.63;;;5.05;100.00
77590;BME280;66746;51.328;12.332;2023-11-19T03:05:09;99858.59;;;5.13;100.00
77590;BME280;66746;51.328;12.332;2023-11-19T03:07:36;99855.91;;;5.13;100.00
77590;BME280;66746;51.328;12.332;2023-11-19T03:10:03;99860.28;;;5.15;100.00
77590;BME280;66746;51.328;12.332;2023-11-19T03:12:30;99846.00;;;5.15;100.00
77590;BME280;66746;51.328;12.332;2023-11-19T03:14:56;99839.66;;;5.17;100.00
77590;BME280;66746;51.328;12.332;2023-11-19T03:17:23;99850.22;;;5.25;100.00
77590;BME280;66746;51.328;12.332;2023-11-19T03:19:51;99846.63;;;5.26;100.00
77590;BME280;66746;51.328;12.332;2023-11-19T03:22:17;99843.06;;;5.24;100.00
77590;BME280;66746;51.328;12.332;2023-11-19T03:24:44;99842.94;;;5.30;100.00
77590;BME280;66746;51.328;12.332;2023-11-19T03:27:11;99818.84;;;5.25;100.00
77590;BME280;66746;51.328;12.332;2023-11-19T03:29:38;99836.41;;;5.40;100.00
77590;BME280;66746;51.328;12.332;2023-11-19T03:32:05;99822.88;;;5.43;100.00
77590;BME280;66746;51.328;12.332;2023-11-19T03:34:32;99811.38;;;5.36;100.00
77590;BME280;66746;51.328;12.332;2023-11-19T03:37:00;99830.94;;;5.43;100.00
77590;BME280;66746;51.328;12.332;2023-11-19T03:39:28;99846.06;;;5.47;100.00
77590;BME280;66746;51.328;12.332;2023-11-19T03:41:54;99830.03;;;5.44;100.00
77590;BME280;66746;51.328;12.332;2023-11-19T03:44:23;99831.75;;;5.47;100.00
77590;BME280;66746;51.328;12.332;2023-11-19T03:46:54;99818.38;;;5.44;100.00
77590;BME280;66746;51.328;12.332;2023-11-19T03:49:24;99830.88;;;5.46;100.00
77590;BME280;66746;51.328;12.332;2023-11-19T03:51:51;99815.75;;;5.42;100.00
77590;BME280;66746;51.328;12.332;2023-11-19T03:54:19;99820.75;;;5.56;100.00
77590;BME280;66746;51.328;12.332;2023-11-19T03:56:46;99825.19;;;5.57;100.00
77590;BME280;66746;51.328;12.332;2023-11-19T03:59:13;99816.22;;;5.58;100.00
77590;BME280;66746;51.328;12.332;2023-11-19T04:01:40;99815.25;;;5.60;100.00
77590;BME280;66746;51.328;12.332;2023-11-19T04:04:07;99794.72;;;5.58;100.00
77590;BME280;66746;51.328;12.332;2023-11-19T04:06:34;99781.13;;;5.62;100.00
77590;BME280;66746;51.328;12.332;2023-11-19T04:09:01;99789.00;;;5.70;100.00
77590;BME280;66746;51.328;12.332;2023-11-19T04:11:29;99803.22;;;5.75;100.00
77590;BME280;66746;51.328;12.332;2023-11-19T04:13:56;99792.50;;;5.72;100.00
77590;BME280;66746;51.328;12.332;2023-11-19T04:16:28;99777.25;;;5.72;100.00
77590;BME280;66746;51.328;12.332;2023-11-19T04:18:55;99784.28;;;5.78;100.00
77590;BME280;66746;51.328;12.332;2023-11-19T04:21:23;99779.69;;;5.83;100.00
77590;BME280;66746;51.328;12.332;2023-11-19T04:23:53;99774.00;;;5.95;100.00
77590;BME280;66746;51.328;12.332;2023-11-19T04:26:25;99758.09;;;5.86;100.00
77590;BME280;66746;51.328;12.332;2023-11-19T04:29:06;99769.47;;;5.95;100.00
77590;BME280;66746;51.328;12.332;2023-11-19T04:31:32;99779.38;;;5.95;100.00
77590;BME280;66746;51.328;12.332;2023-11-19T04:34:02;99767.53;;;6.00;100.00
77590;BME280;66746;51.328;12.332;2023-11-19T04:36:29;99755.00;;;5.99;100.00
77590;BME280;66746;51.328;12.332;2023-11-19T04:38:56;99756.00;;;5.97;100.00
77590;BME280;66746;51.328;12.332;2023-11-19T04:41:27;99758.47;;;6.04;100.00
77590;BME280;66746;51.328;12.332;2023-11-19T04:43:54;99727.13;;;6.02;100.00
77590;BME280;66746;51.328;12.332;2023-11-19T04:46:22;99744.06;;;6.05;100.00
77590;BME280;66746;51.328;12.332;2023-11-19T04:48:56;99754.75;;;6.08;100.00
77590;BME280;66746;51.328;12.332;2023-11-19T04:51:23;99749.38;;;6.08;100.00
77590;BME280;66746;51.328;12.332;2023-11-19T04:53:50;99703.63;;;6.08;100.00
77590;BME280;66746;51.328;12.332;2023-11-19T04:56:16;99716.06;;;6.11;100.00
77590;BME280;66746;51.328;12.332;2023-11-19T04:58:43;99715.16;;;6.12;100.00
77590;BME280;66746;51.328;12.332;2023-11-19T05:01:14;99706.25;;;6.10;100.00
77590;BME280;66746;51.328;12.332;2023-11-19T05:03:42;99705.28;;;6.12;100.00
77590;BME280;66746;51.328;12.332;2023-11-19T05:06:09;99706.19;;;6.11;100.00
77590;BME280;66746;51.328;12.332;2023-11-19T05:08:38;99691.84;;;6.12;100.00
77590;BME280;66746;51.328;12.332;2023-11-19T05:11:05;99690.94;;;6.12;100.00
77590;BME280;66746;51.328;12.332;2023-11-19T05:13:32;99683.03;;;6.06;100.00
77590;BME280;66746;51.328;12.332;2023-11-19T05:15:59;99689.97;;;6.14;100.00
77590;BME280;66746;51.328;12.332;2023-11-19T05:18:26;99710.56;;;6.15;100.00
77590;BME280;66746;51.328;12.332;2023-11-19T05:20:54;99691.72;;;6.15;100.00
77590;BME280;66746;51.328;12.332;2023-11-19T05:23:20;99694.34;;;6.18;100.00
77590;BME280;66746;51.328;12.332;2023-11-19T05:25:47;99689.78;;;6.20;100.00
77590;BME280;66746;51.328;12.332;2023-11-19T05:28:14;99666.41;;;6.22;100.00
77590;BME280;66746;51.328;12.332;2023-11-19T05:30:40;99678.00;;;6.24;100.00
77590;BME280;66746;51.328;12.332;2023-11-19T05:33:07;99679.69;;;6.27;100.00
77590;BME280;66746;51.328;12.332;2023-11-19T05:35:36;99684.19;;;6.26;100.00
77590;BME280;66746;51.328;12.332;2023-11-19T05:38:04;99681.31;;;6.33;100.00
77590;BME280;66746;51.328;12.332;2023-11-19T05:40:33;99669.69;;;6.31;100.00
77590;BME280;66746;51.328;12.332;2023-11-19T05:42:59;99676.88;;;6.32;100.00
77590;BME280;66746;51.328;12.332;2023-11-19T05:45:26;99696.34;;;6.40;100.00
77590;BME280;66746;51.328;12.332;2023-11-19T05:47:53;99695.38;;;6.42;100.00
77590;BME280;66746;51.328;12.332;2023-11-19T05:50:21;99694.50;;;6.42;100.00
77590;BME280;66746;51.328;12.332;2023-11-19T05:52:48;99680.00;;;6.46;100.00
77590;BME280;66746;51.328;12.332;2023-11-19T05:55:16;99662.97;;;6.45;100.00
77590;BME280;66746;51.328;12.332;2023-11-19T05:57:43;99649.44;;;6.47;100.00
77590;BME280;66746;51.328;12.332;2023-11-19T06:00:13;99654.53;;;6.56;100.00
77590;BME280;66746;51.328;12.332;2023-11-19T06:02:40;99641.06;;;6.56;100.00
77590;BME280;66746;51.328;12.332;2023-11-19T06:05:07;99658.00;;;6.59;100.00
77590;BME280;66746;51.328;12.332;2023-11-19T06:07:34;99670.41;;;6.65;100.00
77590;BME280;66746;51.328;12.332;2023-11-19T06:10:01;99654.53;;;6.56;100.00
77590;BME280;66746;51.328;12.332;2023-11-19T06:12:29;99665.19;;;6.59;100.00
77590;BME280;66746;51.328;12.332;2023-11-19T06:14:56;99687.38;;;6.67;100.00
77590;BME280;66746;51.328;12.332;2023-11-19T06:17:23;99673.19;;;6.62;100.00
77590;BME280;66746;51.328;12.332;2023-11-19T06:19:49;99676.56;;;6.68;100.00
77590;BME280;66746;51.328;12.332;2023-11-19T06:22:16;99669.50;;;6.64;100.00
77590;BME280;66746;51.328;12.332;2023-11-19T06:24:43;99679.19;;;6.70;100.00
77590;BME280;66746;51.328;12.332;2023-11-19T06:27:09;99684.28;;;6.79;100.00
77590;BME280;66746;51.328;12.332;2023-11-19T06:29:42;99682.53;;;6.78;100.00
77590;BME280;66746;51.328;12.332;2023-11-19T06:32:13;99671.66;;;6.81;100.00
77590;BME280;66746;51.328;12.332;2023-11-19T06:34:41;99681.44;;;6.83;100.00
77590;BME280;66746;51.328;12.332;2023-11-19T06:37:08;99687.91;;;6.78;100.00
77590;BME280;66746;51.328;12.332;2023-11-19T06:39:35;99680.59;;;6.81;100.00
77590;BME280;66746;51.328;12.332;2023-11-19T06:42:02;99683.97;;;6.88;100.00
77590;BME280;66746;51.328;12.332;2023-11-19T06:44:28;99674.22;;;6.84;100.00
77590;BME280;66746;51.328;12.332;2023-11-19T06:46:56;99667.72;;;6.91;100.00
77590;BME280;66746;51.328;12.332;2023-11-19T06:49:29;99672.16;;;6.92;100.00
77590;BME280;66746;51.328;12.332;2023-11-19T06:51:56;99653.44;;;6.87;100.00
77590;BME280;66746;51.328;12.332;2023-11-19T06:54:42;99650.66;;;6.90;100.00
77590;BME280;66746;51.328;12.332;2023-11-19T07:00:13;99642.31;;;6.98;100.00
77590;BME280;66746;51.328;12.332;2023-11-19T07:02:41;99668.38;;;6.97;100.00
77590;BME280;66746;51.328;12.332;2023-11-19T07:05:08;99681.78;;;6.99;100.00
77590;BME280;66746;51.328;12.332;2023-11-19T07:07:35;99681.91;;;6.96;100.00
77590;BME280;66746;51.328;12.332;2023-11-19T07:10:02;99681.69;;;7.02;100.00
77590;BME280;66746;51.328;12.332;2023-11-19T07:12:29;99681.59;;;7.05;100.00
77590;BME280;66746;51.328;12.332;2023-11-19T07:14:55;99690.50;;;7.07;100.00
77590;BME280;66746;51.328;12.332;2023-11-19T07:17:22;99693.94;;;7.12;100.00
77590;BME280;66746;51.328;12.332;2023-11-19T07:19:50;99702.84;;;7.14;100.00
77590;BME280;66746;51.328;12.332;2023-11-19T07:22:17;99706.38;;;7.16;100.00
77590;BME280;66746;51.328;12.332;2023-11-19T07:24:43;99713.53;;;7.17;100.00
77590;BME280;66746;51.328;12.332;2023-11-19T07:27:10;99705.44;;;7.17;100.00
77590;BME280;66746;51.328;12.332;2023-11-19T07:29:37;99709.84;;;7.20;100.00
77590;BME280;66746;51.328;12.332;2023-11-19T07:32:05;99707.00;;;7.24;100.00
77590;BME280;66746;51.328;12.332;2023-11-19T07:34:32;99706.88;;;7.27;100.00
77590;BME280;66746;51.328;12.332;2023-11-19T07:36:59;99707.44;;;7.37;100.00
77590;BME280;66746;51.328;12.332;2023-11-19T07:39:26;99710.91;;;7.40;100.00
77590;BME280;66746;51.328;12.332;2023-11-19T07:41:53;99710.69;;;7.46;100.00
77590;BME280;66746;51.328;12.332;2023-11-19T07:44:19;99705.06;;;7.52;100.00
77590;BME280;66746;51.328;12.332;2023-11-19T07:46:46;99706.91;;;7.52;100.00
77590;BME280;66746;51.328;12.332;2023-11-19T07:49:13;99720.22;;;7.56;100.00
77590;BME280;66746;51.328;12.332;2023-11-19T07:51:39;99707.63;;;7.57;100.00
77590;BME280;66746;51.328;12.332;2023-11-19T07:54:07;99715.56;;;7.61;100.00
77590;BME280;66746;51.328;12.332;2023-11-19T07:56:36;99719.09;;;7.63;100.00
77590;BME280;66746;51.328;12.332;2023-11-19T07:59:03;99711.91;;;7.62;100.00
77590;BME280;66746;51.328;12.332;2023-11-19T08:01:30;99717.09;;;7.68;100.00
77590;BME280;66746;51.328;12.332;2023-11-19T08:03:56;99716.16;;;7.69;100.00
77590;BME280;66746;51.328;12.332;2023-11-19T08:06:25;99719.50;;;7.76;100.00
77590;BME280;66746;51.328;12.332;2023-11-19T08:08:51;99713.00;;;7.81;100.00
77590;BME280;66746;51.328;12.332;2023-11-19T08:11:20;99724.59;;;7.85;100.00
77590;BME280;66746;51.328;12.332;2023-11-19T08:13:47;99720.03;;;7.85;100.00
77590;BME280;66746;51.328;12.332;2023-11-19T08:16:14;99720.78;;;7.90;100.00
77590;BME280;66746;51.328;12.332;2023-11-19T08:18:41;99724.16;;;7.95;100.00
77590;BME280;66746;51.328;12.332;2023-11-19T08:21:08;99715.00;;;7.99;100.00
77590;BME280;66746;51.328;12.332;2023-11-19T08:23:36;99715.69;;;8.06;100.00
77590;BME280;66746;51.328;12.332;2023-11-19T08:26:03;99721.84;;;8.10;100.00
77590;BME280;66746;51.328;12.332;2023-11-19T08:28:32;99707.44;;;8.09;100.00
77590;BME280;66746;51.328;12.332;2023-11-19T08:30:58;99709.97;;;8.14;100.00
77590;BME280;66746;51.328;12.332;2023-11-19T08:33:26;99712.63;;;8.15;100.00
77590;BME280;66746;51.328;12.332;2023-11-19T08:35:53;99720.38;;;8.24;100.00
77590;BME280;66746;51.328;12.332;2023-11-19T08:38:19;99719.56;;;8.22;100.00
77590;BME280;66746;51.328;12.332;2023-11-19T08:40:49;99733.63;;;8.32;100.00
77590;BME280;66746;51.328;12.332;2023-11-19T08:43:15;99732.34;;;8.42;100.00
77590;BME280;66746;51.328;12.332;2023-11-19T08:45:43;99735.25;;;8.59;100.00
77590;BME280;66746;51.328;12.332;2023-11-19T08:48:10;99727.81;;;8.64;100.00
77590;BME280;66746;51.328;12.332;2023-11-19T08:50:36;99725.94;;;8.66;100.00
77590;BME280;66746;51.328;12.332;2023-11-19T08:53:03;99723.94;;;8.71;100.00
77590;BME280;66746;51.328;12.332;2023-11-19T08:55:32;99722.81;;;8.76;100.00
77590;BME280;66746;51.328;12.332;2023-11-19T08:57:58;99723.38;;;8.84;100.00
77590;BME280;66746;51.328;12.332;2023-11-19T09:00:25;99723.88;;;8.94;100.00
77590;BME280;66746;51.328;12.332;2023-11-19T09:02:53;99732.69;;;8.99;100.00
77590;BME280;66746;51.328;12.332;2023-11-19T09:05:20;99731.50;;;9.06;100.00
77590;BME280;66746;51.328;12.332;2023-11-19T09:07:46;99731.34;;;9.09;100.00
77590;BME280;66746;51.328;12.332;2023-11-19T09:10:13;99727.47;;;9.16;100.00
77590;BME280;66746;51.328;12.332;2023-11-19T09:12:40;99730.72;;;9.24;100.00
77590;BME280;66746;51.328;12.332;2023-11-19T09:15:08;99738.72;;;9.27;100.00
77590;BME280;66746;51.328;12.332;2023-11-19T09:17:34;99734.94;;;9.31;100.00
77590;BME280;66746;51.328;12.332;2023-11-19T09:20:03;99723.97;;;9.34;100.00
77590;BME280;66746;51.328;12.332;2023-11-19T09:22:29;99739.13;;;9.38;100.00
77590;BME280;66746;51.328;12.332;2023-11-19T09:24:56;99741.72;;;9.41;100.00
77590;BME280;66746;51.328;12.332;2023-11-19T09:27:22;99739.13;;;9.38;100.00
77590;BME280;66746;51.328;12.332;2023-11-19T09:29:49;99740.75;;;9.42;100.00
77590;BME280;66746;51.328;12.332;2023-11-19T09:32:15;99747.94;;;9.43;100.00
77590;BME280;66746;51.328;12.332;2023-11-19T09:34:42;99747.78;;;9.46;100.00
77590;BME280;66746;51.328;12.332;2023-11-19T09:37:10;99753.22;;;9.46;100.00
77590;BME280;66746;51.328;12.332;2023-11-19T09:39:40;99739.75;;;9.45;100.00
77590;BME280;66746;51.328;12.332;2023-11-19T09:42:06;99742.38;;;9.46;100.00
77590;BME280;66746;51.328;12.332;2023-11-19T09:44:33;99743.91;;;9.53;100.00
77590;BME280;66746;51.328;12.332;2023-11-19T09:47:00;99739.97;;;9.60;100.00
77590;BME280;66746;51.328;12.332;2023-11-19T09:49:27;99734.56;;;9.60;100.00
77590;BME280;66746;51.328;12.332;2023-11-19T09:51:57;99740.78;;;9.62;100.00
77590;BME280;66746;51.328;12.332;2023-11-19T09:54:25;99729.81;;;9.65;100.00
77590;BME280;66746;51.328;12.332;2023-11-19T09:56:51;99729.88;;;9.64;100.00
77590;BME280;66746;51.328;12.332;2023-11-19T09:59:18;99721.84;;;9.62;100.00
77590;BME280;66746;51.328;12.332;2023-11-19T10:01:45;99722.47;;;9.69;100.00
77590;BME280;66746;51.328;12.332;2023-11-19T10:04:15;99716.88;;;9.72;100.00
77590;BME280;66746;51.328;12.332;2023-11-19T10:06:42;99714.00;;;9.76;100.00
77590;BME280;66746;51.328;12.332;2023-11-19T10:09:09;99726.03;;;9.69;100.00
77590;BME280;66746;51.328;12.332;2023-11-19T10:11:37;99720.75;;;9.66;100.00
77590;BME280;66746;51.328;12.332;2023-11-19T10:14:04;99729.75;;;9.67;100.00
77590;BME280;66746;51.328;12.332;2023-11-19T10:16:31;99718.88;;;9.68;100.00
77590;BME280;66746;51.328;12.332;2023-11-19T10:19:00;99720.69;;;9.68;100.00
77590;BME280;66746;51.328;12.332;2023-11-19T10:21:27;99723.19;;;9.72;100.00
77590;BME280;66746;51.328;12.332;2023-11-19T10:23:57;99719.94;;;9.85;100.00
77590;BME280;66746;51.328;12.332;2023-11-19T10:26:23;99701.13;;;9.81;100.00
77590;BME280;66746;51.328;12.332;2023-11-19T10:28:52;99702.47;;;9.92;100.00
77590;BME280;66746;51.328;12.332;2023-11-19T10:31:19;99691.47;;;9.95;100.00
77590;BME280;66746;51.328;12.332;2023-11-19T10:33:51;99678.00;;;9.93;100.00
77590;BME280;66746;51.328;12.332;2023-11-19T10:36:18;99688.75;;;9.95;100.00
77590;BME280;66746;51.328;12.332;2023-11-19T10:38:52;99682.78;;;10.07;100.00
77590;BME280;66746;51.328;12.332;2023-11-19T10:41:28;99679.81;;;10.13;100.00
77590;BME280;66746;51.328;12.332;2023-11-19T10:43:57;99685.94;;;10.18;100.00
77590;BME280;66746;51.328;12.332;2023-11-19T10:46:36;99688.28;;;10.25;100.00
77590;BME280;66746;51.328;12.332;2023-11-19T10:49:03;99679.88;;;10.31;100.00
77590;BME280;66746;51.328;12.332;2023-11-19T10:51:30;99681.81;;;10.46;100.00
77590;BME280;66746;51.328;12.332;2023-11-19T10:54:00;99666.25;;;10.87;100.00
77590;BME280;66746;51.328;12.332;2023-11-19T10:56:30;99667.50;;;11.16;100.00
77590;BME280;66746;51.328;12.332;2023-11-19T10:58:59;99666.31;;;11.38;100.00
77590;BME280;66746;51.328;12.332;2023-11-19T11:01:28;99667.38;;;11.53;100.00
77590;BME280;66746;51.328;12.332;2023-11-19T11:03:59;99655.28;;;11.58;100.00
77590;BME280;66746;51.328;12.332;2023-11-19T11:06:27;99653.38;;;11.78;100.00
77590;BME280;66746;51.328;12.332;2023-11-19T11:08:54;99653.00;;;11.68;100.00
77590;BME280;66746;51.328;12.332;2023-11-19T11:11:21;99668.56;;;11.82;100.00
77590;BME280;66746;51.328;12.332;2023-11-19T11:13:50;99652.41;;;11.96;100.00
77590;BME280;66746;51.328;12.332;2023-11-19T11:16:18;99659.16;;;12.04;100.00
77590;BME280;66746;51.328;12.332;2023-11-19T11:18:46;99654.13;;;11.97;100.00
77590;BME280;66746;51.328;12.332;2023-11-19T11:21:17;99658.69;;;11.96;100.00
77590;BME280;66746;51.328;12.332;2023-11-19T11:24:16;99659.13;;;11.72;100.00
77590;BME280;66746;51.328;12.332;2023-11-19T11:26:59;99650.66;;;11.61;100.00
77590;BME280;66746;51.328;12.332;2023-11-19T11:29:37;99669.69;;;11.78;100.00
77590;BME280;66746;51.328;12.332;2023-11-19T11:32:21;99664.25;;;11.78;100.00
77590;BME280;66746;51.328;12.332;2023-11-19T11:35:09;99650.03;;;11.73;100.00
77590;BME280;66746;51.328;12.332;2023-11-19T11:37:43;99665.03;;;11.80;100.00
77590;BME280;66746;51.328;12.332;2023-11-19T11:40:14;99661.03;;;11.87;100.00
77590;BME280;66746;51.328;12.332;2023-11-19T11:42:40;99657.50;;;12.02;100.00
77590;BME280;66746;51.328;12.332;2023-11-19T11:45:09;99650.16;;;12.19;100.00
77590;BME280;66746;51.328;12.332;2023-11-19T11:48:10;99653.03;;;12.49;100.00
77590;BME280;66746;51.328;12.332;2023-11-19T11:50:52;99651.09;;;12.82;100.00
77590;BME280;66746;51.328;12.332;2023-11-19T11:53:21;99646.13;;;12.89;100.00
77590;BME280;66746;51.328;12.332;2023-11-19T11:55:55;99671.31;;;12.92;100.00
77590;BME280;66746;51.328;12.332;2023-11-19T11:58:26;99666.00;;;12.75;100.00
77590;BME280;66746;51.328;12.332;2023-11-19T12:00:53;99661.34;;;12.77;100.00
77590;BME280;66746;51.328;12.332;2023-11-19T12:03:22;99657.91;;;12.58;100.00
77590;BME280;66746;51.328;12.332;2023-11-19T12:05:49;99647.91;;;12.43;100.00
77590;BME280;66746;51.328;12.332;2023-11-19T12:08:19;99647.91;;;12.43;100.00
77590;BME280;66746;51.328;12.332;2023-11-19T12:10:52;99649.50;;;12.31;100.00
77590;BME280;66746;51.328;12.332;2023-11-19T12:13:20;99648.16;;;12.23;100.00
77590;BME280;66746;51.328;12.332;2023-11-19T12:16:09;99639.03;;;12.24;100.00
77590;BME280;66746;51.328;12.332;2023-11-19T12:18:39;99637.09;;;12.26;100.00
77590;BME280;66746;51.328;12.332;2023-11-19T12:21:06;99639.66;;;12.29;100.00
77590;BME280;66746;51.328;12.332;2023-11-19T12:23:33;99643.19;;;12.47;100.00
77590;BME280;66746;51.328;12.332;2023-11-19T12:26:00;99642.47;;;12.43;100.00
77590;BME280;66746;51.328;12.332;2023-11-19T12:28:27;99639.03;;;12.39;100.00
77590;BME280;66746;51.328;12.332;2023-11-19T12:30:53;99623.78;;;12.53;100.00
77590;BME280;66746;51.328;12.332;2023-11-19T12:33:20;99628.94;;;12.57;100.00
77590;BME280;66746;51.328;12.332;2023-11-19T12:35:48;99644.94;;;12.63;100.00
77590;BME280;66746;51.328;12.332;2023-11-19T12:38:18;99639.31;;;12.51;100.00
77590;BME280;66746;51.328;12.332;2023-11-19T12:40:45;99649.13;;;12.37;97.73
77590;BME280;66746;51.328;12.332;2023-11-19T12:43:21;99642.53;;;12.26;99.41
77590;BME280;66746;51.328;12.332;2023-11-19T12:45:47;99632.09;;;12.18;100.00
77590;BME280;66746;51.328;12.332;2023-11-19T12:48:14;99643.94;;;12.17;100.00
77590;BME280;66746;51.328;12.332;2023-11-19T12:50:52;99640.69;;;12.11;100.00
77590;BME280;66746;51.328;12.332;2023-11-19T12:53:19;99643.47;;;12.09;100.00